sensor_id;sensor_type;location;lat;lon;timestamp;temperature;humidity
74940;HTU21D;63505;45.226;37.908;2023-02-15T00:01:20;1.64;87.45
74940;HTU21D;63505;45.226;37.908;2023-02-15T00:03:48;1.63;87.45
74940;HTU21D;63505;45.226;37.908;2023-02-15T00:06:14;1.63;87.45
74940;HTU21D;63505;45.226;37.908;2023-02-15T00:08:40;1.63;87.47
74940;HTU21D;63505;45.226;37.908;2023-02-15T00:11:08;1.62;87.48
74940;HTU21D;63505;45.226;37.908;2023-02-15T00:13:35;1.62;87.45
74940;HTU21D;63505;45.226;37.908;2023-02-15T00:16:03;1.63;87.47
74940;HTU21D;63505;45.226;37.908;2023-02-15T00:18:30;1.64;87.47
74940;HTU21D;63505;45.226;37.908;2023-02-15T00:20:56;1.62;87.44
74940;HTU21D;63505;45.226;37.908;2023-02-15T00:23:22;1.63;87.45
74940;HTU21D;63505;45.226;37.908;2023-02-15T00:25:48;1.64;87.42
74940;HTU21D;63505;45.226;37.908;2023-02-15T00:28:14;1.64;87.41
74940;HTU21D;63505;45.226;37.908;2023-02-15T00:30:39;1.65;87.42
74940;HTU21D;63505;45.226;37.908;2023-02-15T00:33:05;1.65;87.40
74940;HTU21D;63505;45.226;37.908;2023-02-15T00:35:32;1.65;87.38
74940;HTU21D;63505;45.226;37.908;2023-02-15T00:37:58;1.64;87.35
74940;HTU21D;63505;45.226;37.908;2023-02-15T00:40:24;1.62;87.35
74940;HTU21D;63505;45.226;37.908;2023-02-15T00:42:50;1.62;87.35
74940;HTU21D;63505;45.226;37.908;2023-02-15T00:45:16;1.60;87.35
74940;HTU21D;63505;45.226;37.908;2023-02-15T00:47:42;1.60;87.33
74940;HTU21D;63505;45.226;37.908;2023-02-15T00:50:08;1.60;87.32
74940;HTU21D;63505;45.226;37.908;2023-02-15T00:52:34;1.58;87.32
74940;HTU21D;63505;45.226;37.908;2023-02-15T00:55:02;1.57;87.30
74940;HTU21D;63505;45.226;37.908;2023-02-15T00:57:28;1.57;87.31
74940;HTU21D;63505;45.226;37.908;2023-02-15T00:59:54;1.56;87.28
74940;HTU21D;63505;45.226;37.908;2023-02-15T01:02:20;1.55;87.28
74940;HTU21D;63505;45.226;37.908;2023-02-15T01:04:46;1.56;87.27
74940;HTU21D;63505;45.226;37.908;2023-02-15T01:07:11;1.55;87.26
74940;HTU21D;63505;45.226;37.908;2023-02-15T01:09:37;1.55;87.25
74940;HTU21D;63505;45.226;37.908;2023-02-15T01:12:03;1.55;87.23
74940;HTU21D;63505;45.226;37.908;2023-02-15T01:14:29;1.54;87.24
74940;HTU21D;63505;45.226;37.908;2023-02-15T01:16:55;1.53;87.22
74940;HTU21D;63505;45.226;37.908;2023-02-15T01:19:21;1.52;87.25
74940;HTU21D;63505;45.226;37.908;2023-02-15T01:21:47;1.52;87.26
74940;HTU21D;63505;45.226;37.908;2023-02-15T01:24:13;1.50;87.26
74940;HTU21D;63505;45.226;37.908;2023-02-15T01:26:39;1.51;87.29
74940;HTU21D;63505;45.226;37.908;2023-02-15T01:29:05;1.52;87.28
74940;HTU21D;63505;45.226;37.908;2023-02-15T01:31:31;1.52;87.27
74940;HTU21D;63505;45.226;37.908;2023-02-15T01:33:57;1.52;87.25
74940;HTU21D;63505;45.226;37.908;2023-02-15T01:36:23;1.51;87.25
74940;HTU21D;63505;45.226;37.908;2023-02-15T01:38:50;1.49;87.24
74940;HTU21D;63505;45.226;37.908;2023-02-15T01:41:17;1.47;87.25
74940;HTU21D;63505;45.226;37.908;2023-02-15T01:43:48;1.46;87.24
74940;HTU21D;63505;45.226;37.908;2023-02-15T01:46:16;1.45;87.23
74940;HTU21D;63505;45.226;37.908;2023-02-15T01:49:13;1.43;87.25
74940;HTU21D;63505;45.226;37.908;2023-02-15T01:51:42;1.43;87.26
74940;HTU21D;63505;45.226;37.908;2023-02-15T01:54:27;1.43;87.26
74940;HTU21D;63505;45.226;37.908;2023-02-15T01:57:02;1.43;87.27
74940;HTU21D;63505;45.226;37.908;2023-02-15T01:59:31;1.46;87.28
74940;HTU21D;63505;45.226;37.908;2023-02-15T02:01:59;1.47;87.25
74940;HTU21D;63505;45.226;37.908;2023-02-15T02:04:41;1.47;87.26
74940;HTU21D;63505;45.226;37.908;2023-02-15T02:07:08;1.47;87.23
74940;HTU21D;63505;45.226;37.908;2023-02-15T02:09:36;1.48;87.23
74940;HTU21D;63505;45.226;37.908;2023-02-15T02:12:03;1.49;87.23
74940;HTU21D;63505;45.226;37.908;2023-02-15T02:14:29;1.48;87.22
74940;HTU21D;63505;45.226;37.908;2023-02-15T02:17:17;1.46;87.22
74940;HTU21D;63505;45.226;37.908;2023-02-15T02:23:10;1.47;87.20
74940;HTU21D;63505;45.226;37.908;2023-02-15T02:34:54;1.42;87.17
74940;HTU21D;63505;45.226;37.908;2023-02-15T02:42:41;1.43;87.14
74940;HTU21D;63505;45.226;37.908;2023-02-15T02:48:00;1.43;87.11
74940;HTU21D;63505;45.226;37.908;2023-02-15T02:50:29;1.43;87.13
74940;HTU21D;63505;45.226;37.908;2023-02-15T02:52:57;1.46;87.11
74940;HTU21D;63505;45.226;37.908;2023-02-15T02:55:44;1.46;87.09
74940;HTU21D;63505;45.226;37.908;2023-02-15T03:00:56;1.45;87.09
74940;HTU21D;63505;45.226;37.908;2023-02-15T03:03:36;1.43;87.09
74940;HTU21D;63505;45.226;37.908;2023-02-15T03:06:20;1.43;87.09
74940;HTU21D;63505;45.226;37.908;2023-02-15T03:08:51;1.43;87.07
74940;HTU21D;63505;45.226;37.908;2023-02-15T03:11:19;1.43;87.09
74940;HTU21D;63505;45.226;37.908;2023-02-15T03:13:47;1.45;87.08
74940;HTU21D;63505;45.226;37.908;2023-02-15T03:16:16;1.46;87.06
74940;HTU21D;63505;45.226;37.908;2023-02-15T03:19:12;1.46;87.06
74940;HTU21D;63505;45.226;37.908;2023-02-15T03:21:49;1.47;87.06
74940;HTU21D;63505;45.226;37.908;2023-02-15T03:24:33;1.47;87.04
74940;HTU21D;63505;45.226;37.908;2023-02-15T03:27:03;1.47;87.05
74940;HTU21D;63505;45.226;37.908;2023-02-15T03:29:32;1.48;87.03
74940;HTU21D;63505;45.226;37.908;2023-02-15T03:32:02;1.49;87.03
74940;HTU21D;63505;45.226;37.908;2023-02-15T03:34:31;1.50;87.02
74940;HTU21D;63505;45.226;37.908;2023-02-15T03:37:26;1.52;87.05
74940;HTU21D;63505;45.226;37.908;2023-02-15T03:39:59;1.52;87.02
74940;HTU21D;63505;45.226;37.908;2023-02-15T03:42:50;1.52;86.99
74940;HTU21D;63505;45.226;37.908;2023-02-15T03:45:25;1.54;86.97
74940;HTU21D;63505;45.226;37.908;2023-02-15T03:47:52;1.53;86.96
74940;HTU21D;63505;45.226;37.908;2023-02-15T03:50:30;1.52;86.97
74940;HTU21D;63505;45.226;37.908;2023-02-15T03:53:18;1.54;86.97
74940;HTU21D;63505;45.226;37.908;2023-02-15T03:55:47;1.54;86.96
74940;HTU21D;63505;45.226;37.908;2023-02-15T03:58:13;1.55;86.98
74940;HTU21D;63505;45.226;37.908;2023-02-15T04:00:59;1.55;86.99
74940;HTU21D;63505;45.226;37.908;2023-02-15T04:03:56;1.57;87.00
74940;HTU21D;63505;45.226;37.908;2023-02-15T04:06:22;1.58;86.98
74940;HTU21D;63505;45.226;37.908;2023-02-15T04:08:48;1.60;86.98
74940;HTU21D;63505;45.226;37.908;2023-02-15T04:11:33;1.60;86.94
74940;HTU21D;63505;45.226;37.908;2023-02-15T04:13:58;1.56;86.96
74940;HTU21D;63505;45.226;37.908;2023-02-15T04:16:44;1.54;86.99
74940;HTU21D;63505;45.226;37.908;2023-02-15T04:19:10;1.54;87.03
74940;HTU21D;63505;45.226;37.908;2023-02-15T04:21:54;1.53;87.06
74940;HTU21D;63505;45.226;37.908;2023-02-15T04:24:39;1.57;87.11
74940;HTU21D;63505;45.226;37.908;2023-02-15T04:27:23;1.58;87.06
74940;HTU21D;63505;45.226;37.908;2023-02-15T04:29:49;1.60;87.06
74940;HTU21D;63505;45.226;37.908;2023-02-15T04:32:15;1.56;87.06
74940;HTU21D;63505;45.226;37.908;2023-02-15T04:34:41;1.53;87.09
74940;HTU21D;63505;45.226;37.908;2023-02-15T04:37:07;1.51;87.11
74940;HTU21D;63505;45.226;37.908;2023-02-15T04:39:32;1.50;87.17
74940;HTU21D;63505;45.226;37.908;2023-02-15T04:41:58;1.49;87.22
74940;HTU21D;63505;45.226;37.908;2023-02-15T04:44:24;1.48;87.28
74940;HTU21D;63505;45.226;37.908;2023-02-15T04:46:50;1.49;87.28
74940;HTU21D;63505;45.226;37.908;2023-02-15T04:49:16;1.51;87.32
74940;HTU21D;63505;45.226;37.908;2023-02-15T04:51:42;1.54;87.32
74940;HTU21D;63505;45.226;37.908;2023-02-15T04:54:07;1.56;87.32
74940;HTU21D;63505;45.226;37.908;2023-02-15T04:56:33;1.57;87.28
74940;HTU21D;63505;45.226;37.908;2023-02-15T04:59:00;1.61;87.29
74940;HTU21D;63505;45.226;37.908;2023-02-15T05:01:26;1.61;87.27
74940;HTU21D;63505;45.226;37.908;2023-02-15T05:03:52;1.65;87.26
74940;HTU21D;63505;45.226;37.908;2023-02-15T05:06:18;1.69;87.24
74940;HTU21D;63505;45.226;37.908;2023-02-15T05:08:43;1.69;87.22
74940;HTU21D;63505;45.226;37.908;2023-02-15T05:11:09;1.70;87.20
74940;HTU21D;63505;45.226;37.908;2023-02-15T05:13:35;1.70;87.19
74940;HTU21D;63505;45.226;37.908;2023-02-15T05:16:01;1.71;87.18
74940;HTU21D;63505;45.226;37.908;2023-02-15T05:18:28;1.73;87.15
74940;HTU21D;63505;45.226;37.908;2023-02-15T05:20:54;1.72;87.17
74940;HTU21D;63505;45.226;37.908;2023-02-15T05:23:19;1.75;87.19
74940;HTU21D;63505;45.226;37.908;2023-02-15T05:25:49;1.77;87.17
74940;HTU21D;63505;45.226;37.908;2023-02-15T05:28:34;1.77;87.16
74940;HTU21D;63505;45.226;37.908;2023-02-15T05:33:34;1.79;87.15
74940;HTU21D;63505;45.226;37.908;2023-02-15T05:36:01;1.80;87.20
74940;HTU21D;63505;45.226;37.908;2023-02-15T05:38:27;1.80;87.17
74940;HTU21D;63505;45.226;37.908;2023-02-15T05:40:53;1.80;87.23
74940;HTU21D;63505;45.226;37.908;2023-02-15T05:43:19;1.81;87.25
74940;HTU21D;63505;45.226;37.908;2023-02-15T05:45:50;1.81;87.23
74940;HTU21D;63505;45.226;37.908;2023-02-15T05:48:16;1.82;87.28
74940;HTU21D;63505;45.226;37.908;2023-02-15T05:50:43;1.82;87.27
74940;HTU21D;63505;45.226;37.908;2023-02-15T05:53:09;1.80;87.27
74940;HTU21D;63505;45.226;37.908;2023-02-15T05:55:38;1.79;87.30
74940;HTU21D;63505;45.226;37.908;2023-02-15T05:58:05;1.78;87.34
74940;HTU21D;63505;45.226;37.908;2023-02-15T06:00:31;1.76;87.41
74940;HTU21D;63505;45.226;37.908;2023-02-15T06:02:57;1.72;87.41
74940;HTU21D;63505;45.226;37.908;2023-02-15T06:05:22;1.71;87.50
74940;HTU21D;63505;45.226;37.908;2023-02-15T06:07:48;1.70;87.57
74940;HTU21D;63505;45.226;37.908;2023-02-15T06:10:14;1.73;87.65
74940;HTU21D;63505;45.226;37.908;2023-02-15T06:12:40;1.77;87.66
74940;HTU21D;63505;45.226;37.908;2023-02-15T06:15:06;1.81;87.66
74940;HTU21D;63505;45.226;37.908;2023-02-15T06:17:32;1.85;87.68
74940;HTU21D;63505;45.226;37.908;2023-02-15T06:19:58;1.88;87.72
74940;HTU21D;63505;45.226;37.908;2023-02-15T06:22:24;1.96;87.76
74940;HTU21D;63505;45.226;37.908;2023-02-15T06:24:50;2.02;87.77
74940;HTU21D;63505;45.226;37.908;2023-02-15T06:27:16;2.07;87.73
74940;HTU21D;63505;45.226;37.908;2023-02-15T06:29:42;2.11;87.78
74940;HTU21D;63505;45.226;37.908;2023-02-15T06:32:08;2.16;87.78
74940;HTU21D;63505;45.226;37.908;2023-02-15T06:34:34;2.26;87.83
74940;HTU21D;63505;45.226;37.908;2023-02-15T06:36:59;2.38;87.75
74940;HTU21D;63505;45.226;37.908;2023-02-15T06:39:25;2.45;87.73
74940;HTU21D;63505;45.226;37.908;2023-02-15T06:41:51;2.53;87.70
74940;HTU21D;63505;45.226;37.908;2023-02-15T06:44:17;2.58;87.71
74940;HTU21D;63505;45.226;37.908;2023-02-15T06:46:43;2.64;87.60
74940;HTU21D;63505;45.226;37.908;2023-02-15T06:49:09;2.62;87.60
74940;HTU21D;63505;45.226;37.908;2023-02-15T06:51:34;2.62;87.67
74940;HTU21D;63505;45.226;37.908;2023-02-15T06:54:00;2.65;87.70
74940;HTU21D;63505;45.226;37.908;2023-02-15T06:56:26;2.70;87.70
74940;HTU21D;63505;45.226;37.908;2023-02-15T06:58:52;2.78;87.78
74940;HTU21D;63505;45.226;37.908;2023-02-15T07:01:18;2.90;87.73
74940;HTU21D;63505;45.226;37.908;2023-02-15T07:03:44;3.04;87.73
74940;HTU21D;63505;45.226;37.908;2023-02-15T07:06:10;3.24;87.63
74940;HTU21D;63505;45.226;37.908;2023-02-15T07:08:37;3.41;87.49
74940;HTU21D;63505;45.226;37.908;2023-02-15T07:11:04;3.58;87.34
74940;HTU21D;63505;45.226;37.908;2023-02-15T07:13:49;3.74;87.19
74940;HTU21D;63505;45.226;37.908;2023-02-15T07:16:15;3.87;87.06
74940;HTU21D;63505;45.226;37.908;2023-02-15T07:18:41;4.03;86.88
74940;HTU21D;63505;45.226;37.908;2023-02-15T07:21:07;4.15;86.67
74940;HTU21D;63505;45.226;37.908;2023-02-15T07:23:37;4.27;86.58
74940;HTU21D;63505;45.226;37.908;2023-02-15T07:26:04;4.41;86.38
74940;HTU21D;63505;45.226;37.908;2023-02-15T07:28:30;4.44;86.08
74940;HTU21D;63505;45.226;37.908;2023-02-15T07:30:56;4.34;86.00
74940;HTU21D;63505;45.226;37.908;2023-02-15T07:33:23;4.35;86.30
74940;HTU21D;63505;45.226;37.908;2023-02-15T07:35:53;4.62;86.07
74940;HTU21D;63505;45.226;37.908;2023-02-15T07:38:20;4.67;85.84
74940;HTU21D;63505;45.226;37.908;2023-02-15T07:40:46;4.67;85.64
74940;HTU21D;63505;45.226;37.908;2023-02-15T07:43:12;4.51;85.61
74940;HTU21D;63505;45.226;37.908;2023-02-15T07:45:38;4.39;85.67
74940;HTU21D;63505;45.226;37.908;2023-02-15T07:48:05;4.46;85.90
74940;HTU21D;63505;45.226;37.908;2023-02-15T07:50:31;4.72;85.87
74940;HTU21D;63505;45.226;37.908;2023-02-15T07:52:57;5.09;85.53
74940;HTU21D;63505;45.226;37.908;2023-02-15T07:55:23;5.46;85.16
74940;HTU21D;63505;45.226;37.908;2023-02-15T07:57:50;5.85;84.73
74940;HTU21D;63505;45.226;37.908;2023-02-15T08:00:18;6.05;84.07
74940;HTU21D;63505;45.226;37.908;2023-02-15T08:02:51;6.12;83.77
74940;HTU21D;63505;45.226;37.908;2023-02-15T08:05:39;6.11;83.45
74940;HTU21D;63505;45.226;37.908;2023-02-15T08:08:06;5.93;83.36
74940;HTU21D;63505;45.226;37.908;2023-02-15T08:10:32;5.74;83.30
74940;HTU21D;63505;45.226;37.908;2023-02-15T08:13:17;5.54;83.29
74940;HTU21D;63505;45.226;37.908;2023-02-15T08:15:52;5.41;83.29
74940;HTU21D;63505;45.226;37.908;2023-02-15T08:18:18;5.30;83.21
74940;HTU21D;63505;45.226;37.908;2023-02-15T08:20:49;5.12;83.02
74940;HTU21D;63505;45.226;37.908;2023-02-15T08:23:15;4.95;83.00
74940;HTU21D;63505;45.226;37.908;2023-02-15T08:25:41;4.91;83.05
74940;HTU21D;63505;45.226;37.908;2023-02-15T08:28:07;4.83;82.97
74940;HTU21D;63505;45.226;37.908;2023-02-15T08:30:32;4.82;83.08
74940;HTU21D;63505;45.226;37.908;2023-02-15T08:32:58;4.94;83.09
74940;HTU21D;63505;45.226;37.908;2023-02-15T08:35:24;5.07;82.85
74940;HTU21D;63505;45.226;37.908;2023-02-15T08:37:51;5.06;82.52
74940;HTU21D;63505;45.226;37.908;2023-02-15T08:40:17;5.16;82.49
74940;HTU21D;63505;45.226;37.908;2023-02-15T08:42:43;5.32;82.33
74940;HTU21D;63505;45.226;37.908;2023-02-15T08:45:08;5.69;81.91
74940;HTU21D;63505;45.226;37.908;2023-02-15T08:47:34;6.23;81.26
74940;HTU21D;63505;45.226;37.908;2023-02-15T08:50:00;6.61;80.46
74940;HTU21D;63505;45.226;37.908;2023-02-15T08:52:26;6.60;79.57
74940;HTU21D;63505;45.226;37.908;2023-02-15T08:54:51;6.51;79.74
74940;HTU21D;63505;45.226;37.908;2023-02-15T08:57:17;6.40;79.87
74940;HTU21D;63505;45.226;37.908;2023-02-15T08:59:44;6.21;79.96
74940;HTU21D;63505;45.226;37.908;2023-02-15T09:02:10;6.24;80.28
74940;HTU21D;63505;45.226;37.908;2023-02-15T09:04:36;6.36;79.78
74940;HTU21D;63505;45.226;37.908;2023-02-15T09:07:02;6.14;79.27
74940;HTU21D;63505;45.226;37.908;2023-02-15T09:09:29;5.89;79.24
74940;HTU21D;63505;45.226;37.908;2023-02-15T09:11:57;5.90;79.38
74940;HTU21D;63505;45.226;37.908;2023-02-15T09:14:22;5.92;79.30
74940;HTU21D;63505;45.226;37.908;2023-02-15T09:16:52;5.92;79.06
74940;HTU21D;63505;45.226;37.908;2023-02-15T09:19:20;5.95;78.90
74940;HTU21D;63505;45.226;37.908;2023-02-15T09:21:46;6.09;78.83
74940;HTU21D;63505;45.226;37.908;2023-02-15T09:24:14;6.21;78.62
74940;HTU21D;63505;45.226;37.908;2023-02-15T09:26:42;6.49;78.20
74940;HTU21D;63505;45.226;37.908;2023-02-15T09:29:09;6.70;77.76
74940;HTU21D;63505;45.226;37.908;2023-02-15T09:31:44;6.74;77.27
74940;HTU21D;63505;45.226;37.908;2023-02-15T09:34:12;6.61;77.33
74940;HTU21D;63505;45.226;37.908;2023-02-15T09:36:39;6.82;77.11
74940;HTU21D;63505;45.226;37.908;2023-02-15T09:39:07;7.14;76.55
74940;HTU21D;63505;45.226;37.908;2023-02-15T09:44:35;6.80;75.86
74940;HTU21D;63505;45.226;37.908;2023-02-15T10:06:36;7.91;73.63
74940;HTU21D;63505;45.226;37.908;2023-02-15T10:18:10;6.40;74.30
74940;HTU21D;63505;45.226;37.908;2023-02-15T10:28:46;5.76;75.19
74940;HTU21D;63505;45.226;37.908;2023-02-15T10:31:44;5.81;75.04
74940;HTU21D;63505;45.226;37.908;2023-02-15T10:34:17;5.83;74.92
74940;HTU21D;63505;45.226;37.908;2023-02-15T10:45:11;5.78;74.92
74940;HTU21D;63505;45.226;37.908;2023-02-15T11:06:54;4.77;75.41
74940;HTU21D;63505;45.226;37.908;2023-02-15T11:09:25;4.69;75.40
74940;HTU21D;63505;45.226;37.908;2023-02-15T11:11:56;4.61;75.41
74940;HTU21D;63505;45.226;37.908;2023-02-15T11:14:45;4.52;75.41
74940;HTU21D;63505;45.226;37.908;2023-02-15T11:17:23;4.46;75.45
74940;HTU21D;63505;45.226;37.908;2023-02-15T11:19:57;4.47;75.50
74940;HTU21D;63505;45.226;37.908;2023-02-15T11:22:26;4.50;75.47
74940;HTU21D;63505;45.226;37.908;2023-02-15T11:24:52;4.56;75.38
74940;HTU21D;63505;45.226;37.908;2023-02-15T11:27:22;4.65;75.35
74940;HTU21D;63505;45.226;37.908;2023-02-15T11:30:13;4.74;75.21
74940;HTU21D;63505;45.226;37.908;2023-02-15T11:32:43;4.77;75.06
74940;HTU21D;63505;45.226;37.908;2023-02-15T11:35:18;4.74;75.02
74940;HTU21D;63505;45.226;37.908;2023-02-15T11:37:50;4.63;74.98
74940;HTU21D;63505;45.226;37.908;2023-02-15T11:40:24;4.58;75.12
74940;HTU21D;63505;45.226;37.908;2023-02-15T11:42:55;4.54;75.23
74940;HTU21D;63505;45.226;37.908;2023-02-15T11:45:23;4.54;75.31
74940;HTU21D;63505;45.226;37.908;2023-02-15T11:47:51;4.53;75.34
74940;HTU21D;63505;45.226;37.908;2023-02-15T11:50:23;4.46;75.41
74940;HTU21D;63505;45.226;37.908;2023-02-15T11:52:52;4.35;75.41
74940;HTU21D;63505;45.226;37.908;2023-02-15T11:55:21;4.20;75.55
74940;HTU21D;63505;45.226;37.908;2023-02-15T12:00:41;4.01;75.80
74940;HTU21D;63505;45.226;37.908;2023-02-15T12:03:22;3.97;75.93
74940;HTU21D;63505;45.226;37.908;2023-02-15T12:05:59;3.90;75.99
74940;HTU21D;63505;45.226;37.908;2023-02-15T12:08:37;3.86;76.09
74940;HTU21D;63505;45.226;37.908;2023-02-15T12:13:33;3.93;76.21
74940;HTU21D;63505;45.226;37.908;2023-02-15T12:16:07;4.03;76.16
74940;HTU21D;63505;45.226;37.908;2023-02-15T12:18:40;4.09;76.12
74940;HTU21D;63505;45.226;37.908;2023-02-15T12:21:49;4.13;76.05
74940;HTU21D;63505;45.226;37.908;2023-02-15T12:24:00;4.13;76.03
74940;HTU21D;63505;45.226;37.908;2023-02-15T12:26:31;4.09;76.05
74940;HTU21D;63505;45.226;37.908;2023-02-15T12:29:00;4.04;76.05
74940;HTU21D;63505;45.226;37.908;2023-02-15T12:31:35;3.97;76.15
74940;HTU21D;63505;45.226;37.908;2023-02-15T12:34:07;3.89;76.31
74940;HTU21D;63505;45.226;37.908;2023-02-15T12:36:44;3.84;76.42
74940;HTU21D;63505;45.226;37.908;2023-02-15T12:41:45;3.80;76.57
74940;HTU21D;63505;45.226;37.908;2023-02-15T12:44:19;3.78;76.69
74940;HTU21D;63505;45.226;37.908;2023-02-15T12:47:05;3.79;76.73
74940;HTU21D;63505;45.226;37.908;2023-02-15T12:49:38;3.84;76.78
74940;HTU21D;63505;45.226;37.908;2023-02-15T12:54:46;3.87;76.78
74940;HTU21D;63505;45.226;37.908;2023-02-15T12:59:57;3.85;76.89
74940;HTU21D;63505;45.226;37.908;2023-02-15T13:07:45;3.80;76.98
74940;HTU21D;63505;45.226;37.908;2023-02-15T13:11:11;3.77;77.01
74940;HTU21D;63505;45.226;37.908;2023-02-15T13:14:31;3.73;77.09
74940;HTU21D;63505;45.226;37.908;2023-02-15T13:16:37;3.69;77.15
74940;HTU21D;63505;45.226;37.908;2023-02-15T13:19:10;3.68;77.20
74940;HTU21D;63505;45.226;37.908;2023-02-15T13:21:40;3.68;77.22
74940;HTU21D;63505;45.226;37.908;2023-02-15T13:24:19;3.64;77.27
74940;HTU21D;63505;45.226;37.908;2023-02-15T13:26:47;3.63;77.28
74940;HTU21D;63505;45.226;37.908;2023-02-15T13:29:29;3.61;77.35
74940;HTU21D;63505;45.226;37.908;2023-02-15T13:32:07;3.58;77.38
74940;HTU21D;63505;45.226;37.908;2023-02-15T13:34:36;3.57;77.44
74940;HTU21D;63505;45.226;37.908;2023-02-15T13:37:15;3.56;77.45
74940;HTU21D;63505;45.226;37.908;2023-02-15T13:39:45;3.53;77.49
74940;HTU21D;63505;45.226;37.908;2023-02-15T13:42:46;3.50;77.52
74940;HTU21D;63505;45.226;37.908;2023-02-15T13:51:07;3.41;77.64
74940;HTU21D;63505;45.226;37.908;2023-02-15T14:08:21;3.24;77.80
74940;HTU21D;63505;45.226;37.908;2023-02-15T14:11:15;3.20;77.87
74940;HTU21D;63505;45.226;37.908;2023-02-15T14:19:31;3.12;77.99
74940;HTU21D;63505;45.226;37.908;2023-02-15T14:25:00;3.05;78.08
74940;HTU21D;63505;45.226;37.908;2023-02-15T14:30:32;3.00;78.15
74940;HTU21D;63505;45.226;37.908;2023-02-15T14:35:42;2.97;78.26
74940;HTU21D;63505;45.226;37.908;2023-02-15T14:41:45;2.87;78.34
74940;HTU21D;63505;45.226;37.908;2023-02-15T14:44:36;2.80;78.36
74940;HTU21D;63505;45.226;37.908;2023-02-15T14:49:37;2.67;78.44
74940;HTU21D;63505;45.226;37.908;2023-02-15T14:52:08;2.56;78.50
74940;HTU21D;63505;45.226;37.908;2023-02-15T14:59:56;2.29;78.69
74940;HTU21D;63505;45.226;37.908;2023-02-15T15:02:26;2.20;78.74
74940;HTU21D;63505;45.226;37.908;2023-02-15T15:05:06;2.11;78.76
74940;HTU21D;63505;45.226;37.908;2023-02-15T15:07:54;1.98;78.87
74940;HTU21D;63505;45.226;37.908;2023-02-15T15:12:51;1.84;78.92
74940;HTU21D;63505;45.226;37.908;2023-02-15T15:25:43;1.68;78.88
74940;HTU21D;63505;45.226;37.908;2023-02-15T15:32:08;1.48;78.98
74940;HTU21D;63505;45.226;37.908;2023-02-15T15:48:08;1.07;79.25
74940;HTU21D;63505;45.226;37.908;2023-02-15T15:50:39;1.03;79.27
74940;HTU21D;63505;45.226;37.908;2023-02-15T15:53:06;0.98;79.30
74940;HTU21D;63505;45.226;37.908;2023-02-15T15:55:33;0.95;79.32
74940;HTU21D;63505;45.226;37.908;2023-02-15T15:58:04;0.93;79.32
74940;HTU21D;63505;45.226;37.908;2023-02-15T16:03:05;0.88;79.36
74940;HTU21D;63505;45.226;37.908;2023-02-15T16:05:39;0.84;79.36
74940;HTU21D;63505;45.226;37.908;2023-02-15T16:08:05;0.84;79.39
74940;HTU21D;63505;45.226;37.908;2023-02-15T16:10:32;0.84;79.40
74940;HTU21D;63505;45.226;37.908;2023-02-15T16:12:59;0.81;79.37
74940;HTU21D;63505;45.226;37.908;2023-02-15T16:17:57;0.77;79.40
74940;HTU21D;63505;45.226;37.908;2023-02-15T16:20:36;0.74;79.47
74940;HTU21D;63505;45.226;37.908;2023-02-15T16:28:54;0.62;79.57
74940;HTU21D;63505;45.226;37.908;2023-02-15T16:31:22;0.58;79.62
74940;HTU21D;63505;45.226;37.908;2023-02-15T16:33:48;0.57;79.62
74940;HTU21D;63505;45.226;37.908;2023-02-15T16:36:26;0.53;79.64
74940;HTU21D;63505;45.226;37.908;2023-02-15T16:41:26;0.47;79.71
74940;HTU21D;63505;45.226;37.908;2023-02-15T16:43:55;0.44;79.74
74940;HTU21D;63505;45.226;37.908;2023-02-15T16:46:26;0.43;79.76
74940;HTU21D;63505;45.226;37.908;2023-02-15T16:48:55;0.40;79.82
74940;HTU21D;63505;45.226;37.908;2023-02-15T16:51:24;0.40;79.81
74940;HTU21D;63505;45.226;37.908;2023-02-15T16:53:51;0.38;79.82
74940;HTU21D;63505;45.226;37.908;2023-02-15T16:56:23;0.34;79.83
74940;HTU21D;63505;45.226;37.908;2023-02-15T16:58:50;0.34;79.82
74940;HTU21D;63505;45.226;37.908;2023-02-15T17:01:21;0.35;79.84
74940;HTU21D;63505;45.226;37.908;2023-02-15T17:03:51;0.34;79.85
74940;HTU21D;63505;45.226;37.908;2023-02-15T17:06:25;0.34;79.86
74940;HTU21D;63505;45.226;37.908;2023-02-15T17:08:52;0.31;79.87
74940;HTU21D;63505;45.226;37.908;2023-02-15T17:11:54;0.30;79.91
74940;HTU21D;63505;45.226;37.908;2023-02-15T17:14:26;0.28;79.93
74940;HTU21D;63505;45.226;37.908;2023-02-15T17:17:02;0.25;79.96
74940;HTU21D;63505;45.226;37.908;2023-02-15T17:22:17;0.23;80.04
74940;HTU21D;63505;45.226;37.908;2023-02-15T17:24:45;0.25;80.11
74940;HTU21D;63505;45.226;37.908;2023-02-15T17:27:22;0.29;80.16
74940;HTU21D;63505;45.226;37.908;2023-02-15T17:29:57;0.34;80.14
74940;HTU21D;63505;45.226;37.908;2023-02-15T17:32:25;0.36;80.11
74940;HTU21D;63505;45.226;37.908;2023-02-15T17:34:59;0.37;80.11
74940;HTU21D;63505;45.226;37.908;2023-02-15T17:40:23;0.36;80.11
74940;HTU21D;63505;45.226;37.908;2023-02-15T17:42:50;0.35;80.15
74940;HTU21D;63505;45.226;37.908;2023-02-15T17:45:15;0.36;80.17
74940;HTU21D;63505;45.226;37.908;2023-02-15T17:47:42;0.35;80.20
74940;HTU21D;63505;45.226;37.908;2023-02-15T17:50:16;0.34;80.24
74940;HTU21D;63505;45.226;37.908;2023-02-15T17:52:43;0.35;80.27
74940;HTU21D;63505;45.226;37.908;2023-02-15T17:55:13;0.36;80.32
74940;HTU21D;63505;45.226;37.908;2023-02-15T17:57:58;0.38;80.33
74940;HTU21D;63505;45.226;37.908;2023-02-15T18:00:24;0.42;80.38
74940;HTU21D;63505;45.226;37.908;2023-02-15T18:03:12;0.47;80.36
74940;HTU21D;63505;45.226;37.908;2023-02-15T18:05:57;0.51;80.36
74940;HTU21D;63505;45.226;37.908;2023-02-15T18:08:42;0.57;80.36
74940;HTU21D;63505;45.226;37.908;2023-02-15T18:11:27;0.62;80.32
74940;HTU21D;63505;45.226;37.908;2023-02-15T18:14:07;0.64;80.30
74940;HTU21D;63505;45.226;37.908;2023-02-15T18:16:38;0.71;80.33
74940;HTU21D;63505;45.226;37.908;2023-02-15T18:19:19;0.74;80.32
74940;HTU21D;63505;45.226;37.908;2023-02-15T18:21:46;0.77;80.34
74940;HTU21D;63505;45.226;37.908;2023-02-15T18:24:20;0.83;80.32
74940;HTU21D;63505;45.226;37.908;2023-02-15T18:26:49;0.86;80.32
74940;HTU21D;63505;45.226;37.908;2023-02-15T18:29:15;0.89;80.36
74940;HTU21D;63505;45.226;37.908;2023-02-15T18:31:43;0.91;80.40
74940;HTU21D;63505;45.226;37.908;2023-02-15T18:34:31;0.96;80.43
74940;HTU21D;63505;45.226;37.908;2023-02-15T18:36:59;0.97;80.45
74940;HTU21D;63505;45.226;37.908;2023-02-15T18:39:39;0.98;80.50
74940;HTU21D;63505;45.226;37.908;2023-02-15T18:42:24;0.99;80.56
74940;HTU21D;63505;45.226;37.908;2023-02-15T18:44:55;1.04;80.56
74940;HTU21D;63505;45.226;37.908;2023-02-15T18:47:21;1.03;80.62
74940;HTU21D;63505;45.226;37.908;2023-02-15T18:49:47;1.07;80.66
74940;HTU21D;63505;45.226;37.908;2023-02-15T18:52:16;1.07;80.66
74940;HTU21D;63505;45.226;37.908;2023-02-15T18:54:46;1.09;80.70
74940;HTU21D;63505;45.226;37.908;2023-02-15T18:57:13;1.12;80.76
74940;HTU21D;63505;45.226;37.908;2023-02-15T18:59:40;1.17;80.75
74940;HTU21D;63505;45.226;37.908;2023-02-15T19:02:17;1.18;80.80
74940;HTU21D;63505;45.226;37.908;2023-02-15T19:04:44;1.21;80.81